sensor_id;sensor_type;location;lat;lon;timestamp;P1;durP1;ratioP1;P2;durP2;ratioP2
19800;SDS011;10060;48.274;12.214;2023-03-21T00:02:48;8.03;;;6.90;;
19800;SDS011;10060;48.274;12.214;2023-03-21T00:05:50;10.20;;;7.10;;
19800;SDS011;10060;48.274;12.214;2023-03-21T00:08:52;9.57;;;6.90;;
19800;SDS011;10060;48.274;12.214;2023-03-21T00:11:55;11.70;;;6.93;;
19800;SDS011;10060;48.274;12.214;2023-03-21T00:15:02;10.57;;;6.50;;
19800;SDS011;10060;48.274;12.214;2023-03-21T00:18:04;9.57;;;6.27;;
19800;SDS011;10060;48.274;12.214;2023-03-21T00:21:10;8.17;;;6.50;;
19800;SDS011;10060;48.274;12.214;2023-03-21T00:24:14;7.87;;;6.07;;
19800;SDS011;10060;48.274;12.214;2023-03-21T00:27:16;8.07;;;6.07;;
19800;SDS011;10060;48.274;12.214;2023-03-21T00:30:21;7.90;;;6.00;;
19800;SDS011;10060;48.274;12.214;2023-03-21T00:33:23;9.00;;;6.13;;
19800;SDS011;10060;48.274;12.214;2023-03-21T00:36:25;7.70;;;5.83;;
19800;SDS011;10060;48.274;12.214;2023-03-21T00:39:27;9.40;;;6.20;;
19800;SDS011;10060;48.274;12.214;2023-03-21T00:42:29;8.93;;;5.97;;
19800;SDS011;10060;48.274;12.214;2023-03-21T00:45:33;9.47;;;5.47;;
19800;SDS011;10060;48.274;12.214;2023-03-21T00:48:36;9.20;;;6.23;;
19800;SDS011;10060;48.274;12.214;2023-03-21T00:51:38;6.80;;;5.73;;
19800;SDS011;10060;48.274;12.214;2023-03-21T00:54:42;7.90;;;5.73;;
19800;SDS011;10060;48.274;12.214;2023-03-21T00:57:44;10.03;;;6.00;;
19800;SDS011;10060;48.274;12.214;2023-03-21T01:00:48;7.83;;;5.93;;
19800;SDS011;10060;48.274;12.214;2023-03-21T01:03:50;6.37;;;5.57;;
19800;SDS011;10060;48.274;12.214;2023-03-21T01:07:04;8.10;;;6.20;;
19800;SDS011;10060;48.274;12.214;2023-03-21T01:10:06;7.77;;;5.77;;
19800;SDS011;10060;48.274;12.214;2023-03-21T01:13:10;7.57;;;5.97;;
19800;SDS011;10060;48.274;12.214;2023-03-21T01:16:13;7.53;;;5.70;;
19800;SDS011;10060;48.274;12.214;2023-03-21T01:19:16;7.73;;;5.77;;
19800;SDS011;10060;48.274;12.214;2023-03-21T01:22:19;6.87;;;5.70;;
19800;SDS011;10060;48.274;12.214;2023-03-21T01:25:21;9.33;;;5.63;;
19800;SDS011;10060;48.274;12.214;2023-03-21T01:28:24;6.90;;;5.43;;
19800;SDS011;10060;48.274;12.214;2023-03-21T01:31:28;8.60;;;6.33;;
19800;SDS011;10060;48.274;12.214;2023-03-21T01:34:30;8.13;;;6.50;;
19800;SDS011;10060;48.274;12.214;2023-03-21T01:37:32;8.13;;;7.13;;
19800;SDS011;10060;48.274;12.214;2023-03-21T01:40:35;6.90;;;5.77;;
19800;SDS011;10060;48.274;12.214;2023-03-21T01:43:37;9.07;;;6.03;;
19800;SDS011;10060;48.274;12.214;2023-03-21T01:46:41;6.47;;;4.87;;
19800;SDS011;10060;48.274;12.214;2023-03-21T01:49:46;5.67;;;4.97;;
19800;SDS011;10060;48.274;12.214;2023-03-21T01:52:50;7.83;;;5.70;;
19800;SDS011;10060;48.274;12.214;2023-03-21T01:55:53;8.43;;;5.13;;
19800;SDS011;10060;48.274;12.214;2023-03-21T01:58:55;6.33;;;5.40;;
19800;SDS011;10060;48.274;12.214;2023-03-21T02:02:03;6.97;;;4.97;;
19800;SDS011;10060;48.274;12.214;2023-03-21T02:05:09;8.93;;;4.70;;
19800;SDS011;10060;48.274;12.214;2023-03-21T02:08:11;7.93;;;5.00;;
19800;SDS011;10060;48.274;12.214;2023-03-21T02:11:13;6.43;;;4.80;;
19800;SDS011;10060;48.274;12.214;2023-03-21T02:14:16;6.80;;;5.20;;
19800;SDS011;10060;48.274;12.214;2023-03-21T02:17:21;4.90;;;4.40;;
19800;SDS011;10060;48.274;12.214;2023-03-21T02:20:32;6.37;;;4.80;;
19800;SDS011;10060;48.274;12.214;2023-03-21T02:23:53;6.30;;;5.07;;
19800;SDS011;10060;48.274;12.214;2023-03-21T02:27:03;6.30;;;5.07;;
19800;SDS011;10060;48.274;12.214;2023-03-21T02:30:19;7.57;;;5.13;;
19800;SDS011;10060;48.274;12.214;2023-03-21T02:33:51;5.73;;;4.90;;
19800;SDS011;10060;48.274;12.214;2023-03-21T02:37:03;8.23;;;5.47;;
19800;SDS011;10060;48.274;12.214;2023-03-21T02:40:07;6.43;;;5.43;;
19800;SDS011;10060;48.274;12.214;2023-03-21T02:43:12;10.77;;;5.10;;
19800;SDS011;10060;48.274;12.214;2023-03-21T02:46:17;6.40;;;4.80;;
19800;SDS011;10060;48.274;12.214;2023-03-21T02:49:21;6.40;;;4.77;;
19800;SDS011;10060;48.274;12.214;2023-03-21T02:52:26;8.23;;;5.33;;
19800;SDS011;10060;48.274;12.214;2023-03-21T02:55:30;5.87;;;5.03;;
19800;SDS011;10060;48.274;12.214;2023-03-21T02:58:33;6.30;;;4.67;;
19800;SDS011;10060;48.274;12.214;2023-03-21T03:01:36;5.20;;;4.60;;
19800;SDS011;10060;48.274;12.214;2023-03-21T03:04:38;5.33;;;4.80;;
19800;SDS011;10060;48.274;12.214;2023-03-21T03:07:43;5.47;;;4.63;;
19800;SDS011;10060;48.274;12.214;2023-03-21T03:10:52;9.77;;;5.40;;
19800;SDS011;10060;48.274;12.214;2023-03-21T03:17:17;8.23;;;4.67;;
19800;SDS011;10060;48.274;12.214;2023-03-21T03:20:23;8.50;;;4.83;;
19800;SDS011;10060;48.274;12.214;2023-03-21T03:23:29;7.87;;;4.53;;
19800;SDS011;10060;48.274;12.214;2023-03-21T03:26:35;6.27;;;4.40;;
19800;SDS011;10060;48.274;12.214;2023-03-21T03:29:39;4.90;;;4.40;;
19800;SDS011;10060;48.274;12.214;2023-03-21T03:32:43;5.83;;;4.83;;
19800;SDS011;10060;48.274;12.214;2023-03-21T03:35:47;6.43;;;4.77;;
19800;SDS011;10060;48.274;12.214;2023-03-21T03:38:50;5.20;;;4.50;;
19800;SDS011;10060;48.274;12.214;2023-03-21T03:41:53;5.97;;;4.60;;
19800;SDS011;10060;48.274;12.214;2023-03-21T03:44:57;6.20;;;4.73;;
19800;SDS011;10060;48.274;12.214;2023-03-21T03:48:01;5.77;;;4.83;;
19800;SDS011;10060;48.274;12.214;2023-03-21T03:51:06;5.27;;;4.40;;
19800;SDS011;10060;48.274;12.214;2023-03-21T03:54:12;5.00;;;4.50;;
19800;SDS011;10060;48.274;12.214;2023-03-21T03:57:16;5.57;;;4.33;;
19800;SDS011;10060;48.274;12.214;2023-03-21T04:00:19;8.17;;;4.87;;
19800;SDS011;10060;48.274;12.214;2023-03-21T04:03:21;7.10;;;4.87;;
19800;SDS011;10060;48.274;12.214;2023-03-21T04:06:24;7.20;;;5.33;;
19800;SDS011;10060;48.274;12.214;2023-03-21T04:09:30;5.97;;;5.03;;
19800;SDS011;10060;48.274;12.214;2023-03-21T04:12:32;7.73;;;5.33;;
19800;SDS011;10060;48.274;12.214;2023-03-21T04:15:35;7.10;;;4.90;;
19800;SDS011;10060;48.274;12.214;2023-03-21T04:18:37;6.03;;;5.27;;
19800;SDS011;10060;48.274;12.214;2023-03-21T04:21:39;8.60;;;5.17;;
19800;SDS011;10060;48.274;12.214;2023-03-21T04:24:43;5.77;;;5.07;;
19800;SDS011;10060;48.274;12.214;2023-03-21T04:27:45;6.07;;;4.70;;
19800;SDS011;10060;48.274;12.214;2023-03-21T04:30:47;5.40;;;4.90;;
19800;SDS011;10060;48.274;12.214;2023-03-21T04:33:50;6.53;;;4.80;;
19800;SDS011;10060;48.274;12.214;2023-03-21T04:36:52;5.57;;;4.87;;
19800;SDS011;10060;48.274;12.214;2023-03-21T04:39:55;5.73;;;4.57;;
19800;SDS011;10060;48.274;12.214;2023-03-21T04:42:58;6.77;;;5.17;;
19800;SDS011;10060;48.274;12.214;2023-03-21T04:46:00;7.23;;;4.90;;
19800;SDS011;10060;48.274;12.214;2023-03-21T04:49:03;5.27;;;4.77;;
19800;SDS011;10060;48.274;12.214;2023-03-21T04:52:06;6.03;;;4.73;;
19800;SDS011;10060;48.274;12.214;2023-03-21T04:55:09;6.83;;;4.97;;
19800;SDS011;10060;48.274;12.214;2023-03-21T04:58:11;5.93;;;4.60;;
19800;SDS011;10060;48.274;12.214;2023-03-21T05:01:13;5.53;;;4.60;;
19800;SDS011;10060;48.274;12.214;2023-03-21T05:04:19;5.90;;;4.60;;
19800;SDS011;10060;48.274;12.214;2023-03-21T05:07:21;6.47;;;5.00;;
19800;SDS011;10060;48.274;12.214;2023-03-21T05:10:26;6.43;;;4.87;;
19800;SDS011;10060;48.274;12.214;2023-03-21T05:13:29;5.40;;;4.80;;
19800;SDS011;10060;48.274;12.214;2023-03-21T05:16:31;6.80;;;4.77;;
19800;SDS011;10060;48.274;12.214;2023-03-21T05:19:33;5.67;;;5.10;;
19800;SDS011;10060;48.274;12.214;2023-03-21T05:22:35;6.93;;;5.07;;
19800;SDS011;10060;48.274;12.214;2023-03-21T05:25:41;5.67;;;5.07;;
19800;SDS011;10060;48.274;12.214;2023-03-21T05:28:43;10.80;;;4.63;;
19800;SDS011;10060;48.274;12.214;2023-03-21T05:31:47;6.23;;;4.70;;
19800;SDS011;10060;48.274;12.214;2023-03-21T05:34:49;7.23;;;4.37;;
19800;SDS011;10060;48.274;12.214;2023-03-21T05:37:51;8.13;;;4.60;;
19800;SDS011;10060;48.274;12.214;2023-03-21T05:40:55;4.87;;;4.17;;
19800;SDS011;10060;48.274;12.214;2023-03-21T05:43:57;8.27;;;5.13;;
19800;SDS011;10060;48.274;12.214;2023-03-21T05:46:59;11.37;;;5.37;;
19800;SDS011;10060;48.274;12.214;2023-03-21T05:50:04;7.97;;;4.93;;
19800;SDS011;10060;48.274;12.214;2023-03-21T05:53:06;18.13;;;6.17;;
19800;SDS011;10060;48.274;12.214;2023-03-21T05:56:10;8.57;;;5.93;;
19800;SDS011;10060;48.274;12.214;2023-03-21T05:59:12;8.30;;;6.03;;
19800;SDS011;10060;48.274;12.214;2023-03-21T06:02:15;13.63;;;6.17;;
19800;SDS011;10060;48.274;12.214;2023-03-21T06:05:17;8.37;;;6.53;;
19800;SDS011;10060;48.274;12.214;2023-03-21T06:08:19;9.07;;;5.90;;
19800;SDS011;10060;48.274;12.214;2023-03-21T06:11:24;9.17;;;5.87;;
19800;SDS011;10060;48.274;12.214;2023-03-21T06:14:26;11.10;;;5.73;;
19800;SDS011;10060;48.274;12.214;2023-03-21T06:17:29;6.53;;;5.30;;
19800;SDS011;10060;48.274;12.214;2023-03-21T06:20:31;8.40;;;5.67;;
19800;SDS011;10060;48.274;12.214;2023-03-21T06:23:33;6.37;;;5.33;;
19800;SDS011;10060;48.274;12.214;2023-03-21T06:26:37;7.60;;;5.30;;
19800;SDS011;10060;48.274;12.214;2023-03-21T06:29:41;7.20;;;5.30;;
19800;SDS011;10060;48.274;12.214;2023-03-21T06:32:45;11.33;;;5.70;;
19800;SDS011;10060;48.274;12.214;2023-03-21T06:35:49;8.07;;;6.03;;
19800;SDS011;10060;48.274;12.214;2023-03-21T06:38:51;6.73;;;5.53;;
19800;SDS011;10060;48.274;12.214;2023-03-21T06:41:55;6.23;;;4.93;;
19800;SDS011;10060;48.274;12.214;2023-03-21T06:44:58;6.00;;;5.10;;
19800;SDS011;10060;48.274;12.214;2023-03-21T06:48:00;6.13;;;4.70;;
19800;SDS011;10060;48.274;12.214;2023-03-21T06:51:02;8.90;;;5.53;;
19800;SDS011;10060;48.274;12.214;2023-03-21T06:54:04;6.93;;;5.23;;
19800;SDS011;10060;48.274;12.214;2023-03-21T06:57:08;8.07;;;6.00;;
19800;SDS011;10060;48.274;12.214;2023-03-21T07:00:10;6.13;;;5.07;;
19800;SDS011;10060;48.274;12.214;2023-03-21T07:03:13;6.33;;;5.27;;
19800;SDS011;10060;48.274;12.214;2023-03-21T07:06:15;5.43;;;4.87;;
19800;SDS011;10060;48.274;12.214;2023-03-21T07:09:17;6.50;;;5.33;;
19800;SDS011;10060;48.274;12.214;2023-03-21T07:12:24;7.67;;;5.90;;
19800;SDS011;10060;48.274;12.214;2023-03-21T07:15:26;7.97;;;5.40;;
19800;SDS011;10060;48.274;12.214;2023-03-21T07:18:29;7.27;;;5.83;;
19800;SDS011;10060;48.274;12.214;2023-03-21T07:21:31;10.90;;;6.57;;
19800;SDS011;10060;48.274;12.214;2023-03-21T07:24:33;6.87;;;6.10;;
19800;SDS011;10060;48.274;12.214;2023-03-21T07:27:36;7.13;;;6.10;;
19800;SDS011;10060;48.274;12.214;2023-03-21T07:30:38;9.03;;;5.50;;
19800;SDS011;10060;48.274;12.214;2023-03-21T07:33:40;7.33;;;6.17;;
19800;SDS011;10060;48.274;12.214;2023-03-21T07:36:43;7.80;;;6.57;;
19800;SDS011;10060;48.274;12.214;2023-03-21T07:39:45;8.60;;;5.97;;
19800;SDS011;10060;48.274;12.214;2023-03-21T07:42:48;8.97;;;6.30;;
19800;SDS011;10060;48.274;12.214;2023-03-21T07:45:51;9.07;;;5.57;;
19800;SDS011;10060;48.274;12.214;2023-03-21T07:48:56;8.97;;;6.67;;
19800;SDS011;10060;48.274;12.214;2023-03-21T07:51:59;8.87;;;6.13;;
19800;SDS011;10060;48.274;12.214;2023-03-21T07:55:02;8.17;;;6.10;;
19800;SDS011;10060;48.274;12.214;2023-03-21T07:58:05;9.47;;;6.30;;
19800;SDS011;10060;48.274;12.214;2023-03-21T08:01:07;7.33;;;6.17;;
19800;SDS011;10060;48.274;12.214;2023-03-21T08:04:09;10.47;;;6.20;;
19800;SDS011;10060;48.274;12.214;2023-03-21T08:07:13;8.80;;;5.90;;
19800;SDS011;10060;48.274;12.214;2023-03-21T08:10:15;9.50;;;7.10;;
19800;SDS011;10060;48.274;12.214;2023-03-21T08:13:19;8.07;;;5.83;;
19800;SDS011;10060;48.274;12.214;2023-03-21T08:16:21;11.70;;;6.10;;
19800;SDS011;10060;48.274;12.214;2023-03-21T08:19:23;8.07;;;6.17;;
19800;SDS011;10060;48.274;12.214;2023-03-21T08:22:26;9.03;;;5.87;;
19800;SDS011;10060;48.274;12.214;2023-03-21T08:25:28;8.87;;;6.37;;
19800;SDS011;10060;48.274;12.214;2023-03-21T08:28:32;8.47;;;6.17;;
19800;SDS011;10060;48.274;12.214;2023-03-21T08:31:35;7.90;;;5.83;;
19800;SDS011;10060;48.274;12.214;2023-03-21T08:34:37;11.53;;;6.60;;
19800;SDS011;10060;48.274;12.214;2023-03-21T08:37:41;8.77;;;6.27;;
19800;SDS011;10060;48.274;12.214;2023-03-21T08:40:44;18.83;;;8.47;;
19800;SDS011;10060;48.274;12.214;2023-03-21T08:43:47;10.43;;;6.30;;
19800;SDS011;10060;48.274;12.214;2023-03-21T08:46:50;8.73;;;6.37;;
19800;SDS011;10060;48.274;12.214;2023-03-21T08:49:52;11.43;;;6.83;;
19800;SDS011;10060;48.274;12.214;2023-03-21T08:52:54;13.10;;;7.07;;
19800;SDS011;10060;48.274;12.214;2023-03-21T08:55:57;10.00;;;6.47;;
19800;SDS011;10060;48.274;12.214;2023-03-21T08:59:00;10.90;;;7.20;;
19800;SDS011;10060;48.274;12.214;2023-03-21T09:02:03;9.60;;;6.77;;
19800;SDS011;10060;48.274;12.214;2023-03-21T09:05:06;8.80;;;7.00;;
19800;SDS011;10060;48.274;12.214;2023-03-21T09:08:10;7.90;;;6.30;;
19800;SDS011;10060;48.274;12.214;2023-03-21T09:11:13;9.10;;;6.33;;
19800;SDS011;10060;48.274;12.214;2023-03-21T09:14:16;9.73;;;6.70;;
19800;SDS011;10060;48.274;12.214;2023-03-21T09:17:18;10.30;;;6.33;;
19800;SDS011;10060;48.274;12.214;2023-03-21T09:20:22;11.53;;;6.87;;
19800;SDS011;10060;48.274;12.214;2023-03-21T09:23:29;12.37;;;7.13;;
19800;SDS011;10060;48.274;12.214;2023-03-21T09:26:31;10.57;;;7.10;;
19800;SDS011;10060;48.274;12.214;2023-03-21T09:29:35;12.73;;;7.33;;
19800;SDS011;10060;48.274;12.214;2023-03-21T09:32:37;9.93;;;6.87;;
19800;SDS011;10060;48.274;12.214;2023-03-21T09:35:41;11.77;;;6.90;;
19800;SDS011;10060;48.274;12.214;2023-03-21T09:38:43;12.00;;;7.33;;
19800;SDS011;10060;48.274;12.214;2023-03-21T09:41:55;10.93;;;7.10;;
19800;SDS011;10060;48.274;12.214;2023-03-21T09:45:02;13.10;;;6.73;;
19800;SDS011;10060;48.274;12.214;2023-03-21T09:48:08;11.10;;;7.43;;
19800;SDS011;10060;48.274;12.214;2023-03-21T09:51:16;10.70;;;7.80;;
19800;SDS011;10060;48.274;12.214;2023-03-21T09:54:21;9.93;;;7.07;;
19800;SDS011;10060;48.274;12.214;2023-03-21T09:57:29;11.40;;;7.07;;
19800;SDS011;10060;48.274;12.214;2023-03-21T10:00:35;11.33;;;7.77;;
19800;SDS011;10060;48.274;12.214;2023-03-21T10:03:38;9.83;;;6.90;;
19800;SDS011;10060;48.274;12.214;2023-03-21T10:06:43;12.57;;;7.77;;
19800;SDS011;10060;48.274;12.214;2023-03-21T10:09:47;13.10;;;8.10;;
19800;SDS011;10060;48.274;12.214;2023-03-21T10:12:50;9.07;;;6.60;;
19800;SDS011;10060;48.274;12.214;2023-03-21T10:15:56;10.87;;;7.53;;
19800;SDS011;10060;48.274;12.214;2023-03-21T10:18:59;10.03;;;6.73;;
19800;SDS011;10060;48.274;12.214;2023-03-21T10:22:03;11.00;;;7.37;;
19800;SDS011;10060;48.274;12.214;2023-03-21T10:25:06;12.23;;;7.63;;
19800;SDS011;10060;48.274;12.214;2023-03-21T10:28:12;11.33;;;7.33;;
19800;SDS011;10060;48.274;12.214;2023-03-21T10:31:17;13.30;;;7.17;;
19800;SDS011;10060;48.274;12.214;2023-03-21T10:34:23;10.03;;;6.93;;
19800;SDS011;10060;48.274;12.214;2023-03-21T10:37:27;11.80;;;7.80;;
19800;SDS011;10060;48.274;12.214;2023-03-21T10:40:29;10.53;;;7.20;;
19800;SDS011;10060;48.274;12.214;2023-03-21T10:43:32;10.80;;;7.07;;
19800;SDS011;10060;48.274;12.214;2023-03-21T10:46:37;11.00;;;6.90;;
19800;SDS011;10060;48.274;12.214;2023-03-21T10:49:39;8.93;;;5.87;;
19800;SDS011;10060;48.274;12.214;2023-03-21T10:52:43;13.63;;;6.80;;
19800;SDS011;10060;48.274;12.214;2023-03-21T10:55:46;8.90;;;6.10;;
19800;SDS011;10060;48.274;12.214;2023-03-21T10:58:49;8.53;;;6.17;;
19800;SDS011;10060;48.274;12.214;2023-03-21T11:01:54;11.00;;;6.57;;
19800;SDS011;10060;48.274;12.214;2023-03-21T11:04:57;10.83;;;6.90;;
19800;SDS011;10060;48.274;12.214;2023-03-21T11:08:05;8.83;;;6.20;;
19800;SDS011;10060;48.274;12.214;2023-03-21T11:11:08;10.33;;;6.67;;
19800;SDS011;10060;48.274;12.214;2023-03-21T11:14:23;8.87;;;6.50;;
19800;SDS011;10060;48.274;12.214;2023-03-21T11:17:28;8.43;;;6.17;;
19800;SDS011;10060;48.274;12.214;2023-03-21T11:20:30;10.70;;;6.70;;
19800;SDS011;10060;48.274;12.214;2023-03-21T11:23:34;10.33;;;6.40;;
19800;SDS011;10060;48.274;12.214;2023-03-21T11:26:39;10.20;;;7.10;;
19800;SDS011;10060;48.274;12.214;2023-03-21T11:29:44;9.17;;;6.10;;
19800;SDS011;10060;48.274;12.214;2023-03-21T11:32:50;10.57;;;6.80;;
19800;SDS011;10060;48.274;12.214;2023-03-21T11:35:58;8.70;;;6.30;;
19800;SDS011;10060;48.274;12.214;2023-03-21T11:39:02;12.07;;;6.43;;
19800;SDS011;10060;48.274;12.214;2023-03-21T11:42:24;7.47;;;5.23;;
19800;SDS011;10060;48.274;12.214;2023-03-21T11:45:27;10.03;;;6.27;;
19800;SDS011;10060;48.274;12.214;2023-03-21T11:48:31;10.10;;;6.13;;
19800;SDS011;10060;48.274;12.214;2023-03-21T11:51:36;8.10;;;6.07;;
19800;SDS011;10060;48.274;12.214;2023-03-21T11:54:47;9.13;;;5.60;;
19800;SDS011;10060;48.274;12.214;2023-03-21T11:57:54;8.30;;;5.60;;
19800;SDS011;10060;48.274;12.214;2023-03-21T12:01:02;7.13;;;5.33;;
19800;SDS011;10060;48.274;12.214;2023-03-21T12:04:14;8.97;;;5.40;;
19800;SDS011;10060;48.274;12.214;2023-03-21T12:07:23;8.87;;;5.80;;
19800;SDS011;10060;48.274;12.214;2023-03-21T12:10:32;9.83;;;6.07;;
19800;SDS011;10060;48.274;12.214;2023-03-21T12:13:42;8.67;;;5.37;;
19800;SDS011;10060;48.274;12.214;2023-03-21T12:16:52;7.87;;;5.70;;
19800;SDS011;10060;48.274;12.214;2023-03-21T12:20:02;6.23;;;4.83;;
19800;SDS011;10060;48.274;12.214;2023-03-21T12:23:22;8.93;;;5.05;;
19800;SDS011;10060;48.274;12.214;2023-03-21T12:26:27;6.23;;;5.10;;
19800;SDS011;10060;48.274;12.214;2023-03-21T12:29:35;6.65;;;5.10;;
19800;SDS011;10060;48.274;12.214;2023-03-21T12:32:45;7.28;;;4.90;;
19800;SDS011;10060;48.274;12.214;2023-03-21T12:35:55;6.32;;;4.70;;
19800;SDS011;10060;48.274;12.214;2023-03-21T12:39:03;7.18;;;4.80;;
19800;SDS011;10060;48.274;12.214;2023-03-21T12:42:16;7.20;;;5.07;;
19800;SDS011;10060;48.274;12.214;2023-03-21T12:45:22;6.63;;;4.72;;
19800;SDS011;10060;48.274;12.214;2023-03-21T12:48:27;5.18;;;4.10;;
19800;SDS011;10060;48.274;12.214;2023-03-21T12:51:33;7.28;;;4.75;;
19800;SDS011;10060;48.274;12.214;2023-03-21T12:54:38;5.72;;;4.63;;
19800;SDS011;10060;48.274;12.214;2023-03-21T12:57:44;5.55;;;4.50;;
19800;SDS011;10060;48.274;12.214;2023-03-21T13:00:48;6.82;;;4.22;;
19800;SDS011;10060;48.274;12.214;2023-03-21T13:03:56;6.97;;;4.20;;
19800;SDS011;10060;48.274;12.214;2023-03-21T13:07:02;11.18;;;4.55;;
19800;SDS011;10060;48.274;12.214;2023-03-21T13:10:10;5.93;;;4.35;;
19800;SDS011;10060;48.274;12.214;2023-03-21T13:13:15;7.18;;;4.10;;
19800;SDS011;10060;48.274;12.214;2023-03-21T13:16:20;4.63;;;4.15;;
19800;SDS011;10060;48.274;12.214;2023-03-21T13:19:25;6.95;;;4.13;;
19800;SDS011;10060;48.274;12.214;2023-03-21T13:22:31;4.88;;;3.97;;
19800;SDS011;10060;48.274;12.214;2023-03-21T13:25:35;5.18;;;4.68;;
19800;SDS011;10060;48.274;12.214;2023-03-21T13:28:40;5.13;;;4.53;;
19800;SDS011;10060;48.274;12.214;2023-03-21T13:31:43;5.88;;;4.45;;
19800;SDS011;10060;48.274;12.214;2023-03-21T13:34:48;5.75;;;4.78;;
19800;SDS011;10060;48.274;12.214;2023-03-21T13:37:57;4.30;;;3.72;;
19800;SDS011;10060;48.274;12.214;2023-03-21T13:41:00;5.10;;;3.72;;
19800;SDS011;10060;48.274;12.214;2023-03-21T13:44:05;4.30;;;3.90;;
19800;SDS011;10060;48.274;12.214;2023-03-21T13:47:21;5.55;;;4.63;;
19800;SDS011;10060;48.274;12.214;2023-03-21T13:53:45;5.68;;;3.92;;
19800;SDS011;10060;48.274;12.214;2023-03-21T13:57:00;8.80;;;4.32;;
19800;SDS011;10060;48.274;12.214;2023-03-21T14:00:21;5.07;;;4.00;;
19800;SDS011;10060;48.274;12.214;2023-03-21T14:03:28;5.15;;;3.85;;
19800;SDS011;10060;48.274;12.214;2023-03-21T14:06:34;4.50;;;3.80;;
19800;SDS011;10060;48.274;12.214;2023-03-21T14:09:39;8.88;;;4.90;;
19800;SDS011;10060;48.274;12.214;2023-03-21T14:12:43;5.65;;;4.50;;
19800;SDS011;10060;48.274;12.214;2023-03-21T14:15:46;7.65;;;5.00;;
19800;SDS011;10060;48.274;12.214;2023-03-21T14:18:50;6.53;;;4.95;;
19800;SDS011;10060;48.274;12.214;2023-03-21T14:21:53;5.22;;;4.35;;
19800;SDS011;10060;48.274;12.214;2023-03-21T14:24:57;6.13;;;5.10;;
19800;SDS011;10060;48.274;12.214;2023-03-21T14:28:00;6.90;;;4.97;;
19800;SDS011;10060;48.274;12.214;2023-03-21T14:31:03;5.78;;;4.78;;
19800;SDS011;10060;48.274;12.214;2023-03-21T14:34:06;6.63;;;5.10;;
19800;SDS011;10060;48.274;12.214;2023-03-21T14:37:10;8.18;;;5.18;;
19800;SDS011;10060;48.274;12.214;2023-03-21T14:40:20;7.32;;;4.93;;
19800;SDS011;10060;48.274;12.214;2023-03-21T14:43:23;8.80;;;5.05;;
19800;SDS011;10060;48.274;12.214;2023-03-21T14:46:26;8.35;;;4.93;;
19800;SDS011;10060;48.274;12.214;2023-03-21T14:49:29;5.93;;;4.47;;
19800;SDS011;10060;48.274;12.214;2023-03-21T14:52:32;10.07;;;4.93;;
19800;SDS011;10060;48.274;12.214;2023-03-21T14:55:41;6.90;;;5.63;;
19800;SDS011;10060;48.274;12.214;2023-03-21T14:58:44;7.65;;;4.85;;
19800;SDS011;10060;48.274;12.214;2023-03-21T15:01:47;6.28;;;5.40;;
19800;SDS011;10060;48.274;12.214;2023-03-21T15:04:51;6.22;;;5.10;;
19800;SDS011;10060;48.274;12.214;2023-03-21T15:07:54;7.47;;;5.70;;
19800;SDS011;10060;48.274;12.214;2023-03-21T15:10:58;8.75;;;5.30;;
19800;SDS011;10060;48.274;12.214;2023-03-21T15:14:01;6.57;;;5.57;;
19800;SDS011;10060;48.274;12.214;2023-03-21T15:17:04;7.15;;;6.25;;
19800;SDS011;10060;48.274;12.214;2023-03-21T15:20:09;8.68;;;5.50;;
19800;SDS011;10060;48.274;12.214;2023-03-21T15:23:13;9.07;;;6.20;;
19800;SDS011;10060;48.274;12.214;2023-03-21T15:26:18;8.65;;;6.35;;
19800;SDS011;10060;48.274;12.214;2023-03-21T15:29:21;8.80;;;5.90;;
19800;SDS011;10060;48.274;12.214;2023-03-21T15:32:26;7.88;;;5.88;;
19800;SDS011;10060;48.274;12.214;2023-03-21T15:35:31;12.00;;;6.20;;
19800;SDS011;10060;48.274;12.214;2023-03-21T15:38:36;12.75;;;6.90;;
19800;SDS011;10060;48.274;12.214;2023-03-21T15:41:40;9.13;;;6.20;;
19800;SDS011;10060;48.274;12.214;2023-03-21T15:44:44;8.03;;;6.13;;
19800;SDS011;10060;48.274;12.214;2023-03-21T15:47:49;10.10;;;6.93;;
19800;SDS011;10060;48.274;12.214;2023-03-21T15:50:54;8.88;;;6.75;;
19800;SDS011;10060;48.274;12.214;2023-03-21T15:53:57;10.77;;;6.75;;
19800;SDS011;10060;48.274;12.214;2023-03-21T15:57:02;8.45;;;5.95;;
19800;SDS011;10060;48.274;12.214;2023-03-21T16:00:13;8.98;;;7.32;;
19800;SDS011;10060;48.274;12.214;2023-03-21T16:03:20;9.00;;;5.97;;
19800;SDS011;10060;48.274;12.214;2023-03-21T16:06:28;8.85;;;6.45;;
19800;SDS011;10060;48.274;12.214;2023-03-21T16:09:38;8.70;;;6.93;;
19800;SDS011;10060;48.274;12.214;2023-03-21T16:12:43;10.73;;;6.40;;
19800;SDS011;10060;48.274;12.214;2023-03-21T16:15:45;8.70;;;6.03;;
19800;SDS011;10060;48.274;12.214;2023-03-21T16:18:47;8.13;;;5.68;;
19800;SDS011;10060;48.274;12.214;2023-03-21T16:21:50;8.55;;;6.25;;
19800;SDS011;10060;48.274;12.214;2023-03-21T16:24:52;10.85;;;5.75;;
19800;SDS011;10060;48.274;12.214;2023-03-21T16:27:56;12.35;;;5.95;;
19800;SDS011;10060;48.274;12.214;2023-03-21T16:30:58;9.88;;;5.80;;
19800;SDS011;10060;48.274;12.214;2023-03-21T16:34:00;9.10;;;6.47;;
19800;SDS011;10060;48.274;12.214;2023-03-21T16:37:04;12.02;;;5.90;;
19800;SDS011;10060;48.274;12.214;2023-03-21T16:40:11;10.98;;;5.90;;
19800;SDS011;10060;48.274;12.214;2023-03-21T16:43:17;9.40;;;5.88;;
19800;SDS011;10060;48.274;12.214;2023-03-21T16:46:20;9.68;;;6.32;;
19800;SDS011;10060;48.274;12.214;2023-03-21T16:49:23;13.20;;;7.85;;
19800;SDS011;10060;48.274;12.214;2023-03-21T16:52:26;10.95;;;7.22;;
19800;SDS011;10060;48.274;12.214;2023-03-21T16:55:28;13.38;;;7.40;;
19800;SDS011;10060;48.274;12.214;2023-03-21T16:58:33;13.18;;;7.15;;
19800;SDS011;10060;48.274;12.214;2023-03-21T17:01:35;13.98;;;7.00;;
19800;SDS011;10060;48.274;12.214;2023-03-21T17:04:39;10.55;;;7.55;;
19800;SDS011;10060;48.274;12.214;2023-03-21T17:07:41;9.20;;;6.93;;
19800;SDS011;10060;48.274;12.214;2023-03-21T17:10:43;10.90;;;6.72;;
19800;SDS011;10060;48.274;12.214;2023-03-21T17:13:47;17.50;;;7.50;;
19800;SDS011;10060;48.274;12.214;2023-03-21T17:16:49;13.88;;;7.38;;
19800;SDS011;10060;48.274;12.214;2023-03-21T17:19:51;10.87;;;6.90;;
19800;SDS011;10060;48.274;12.214;2023-03-21T17:22:53;11.32;;;7.13;;
19800;SDS011;10060;48.274;12.214;2023-03-21T17:25:55;15.57;;;7.93;;
19800;SDS011;10060;48.274;12.214;2023-03-21T17:28:59;11.47;;;6.87;;
19800;SDS011;10060;48.274;12.214;2023-03-21T17:32:01;13.47;;;6.93;;
19800;SDS011;10060;48.274;12.214;2023-03-21T17:35:04;9.77;;;6.40;;
19800;SDS011;10060;48.274;12.214;2023-03-21T17:38:09;11.27;;;6.87;;
19800;SDS011;10060;48.274;12.214;2023-03-21T17:41:14;10.40;;;7.33;;
19800;SDS011;10060;48.274;12.214;2023-03-21T17:44:17;14.90;;;6.87;;
19800;SDS011;10060;48.274;12.214;2023-03-21T17:47:20;8.87;;;6.60;;
19800;SDS011;10060;48.274;12.214;2023-03-21T17:50:25;10.80;;;7.40;;
19800;SDS011;10060;48.274;12.214;2023-03-21T17:53:28;10.27;;;7.47;;
19800;SDS011;10060;48.274;12.214;2023-03-21T17:56:30;14.10;;;10.07;;
19800;SDS011;10060;48.274;12.214;2023-03-21T17:59:34;22.47;;;9.97;;
19800;SDS011;10060;48.274;12.214;2023-03-21T18:02:36;12.70;;;7.40;;
19800;SDS011;10060;48.274;12.214;2023-03-21T18:05:38;10.47;;;7.63;;
19800;SDS011;10060;48.274;12.214;2023-03-21T18:08:40;11.63;;;8.37;;
19800;SDS011;10060;48.274;12.214;2023-03-21T18:11:43;13.70;;;8.87;;
19800;SDS011;10060;48.274;12.214;2023-03-21T18:14:47;16.03;;;8.63;;
19800;SDS011;10060;48.274;12.214;2023-03-21T18:17:49;14.50;;;8.93;;